sensor_id;sensor_type;location;lat;lon;timestamp;P1;durP1;ratioP1;P2;durP2;ratioP2
51312;SDS011;37397;53.226;10.400;2023-06-14T00:02:22;5.38;;;3.13;;
51312;SDS011;37397;53.226;10.400;2023-06-14T00:04:49;7.65;;;3.55;;
51312;SDS011;37397;53.226;10.400;2023-06-14T00:07:20;9.02;;;4.00;;
51312;SDS011;37397;53.226;10.400;2023-06-14T00:09:59;7.78;;;3.55;;
51312;SDS011;37397;53.226;10.400;2023-06-14T00:12:26;6.63;;;3.40;;
51312;SDS011;37397;53.226;10.400;2023-06-14T00:14:52;8.07;;;3.60;;
51312;SDS011;37397;53.226;10.400;2023-06-14T00:17:19;9.32;;;3.63;;
51312;SDS011;37397;53.226;10.400;2023-06-14T00:19:45;7.72;;;3.28;;
51312;SDS011;37397;53.226;10.400;2023-06-14T00:22:12;6.85;;;3.15;;
51312;SDS011;37397;53.226;10.400;2023-06-14T00:24:39;6.68;;;3.50;;
51312;SDS011;37397;53.226;10.400;2023-06-14T00:27:05;7.70;;;3.58;;
51312;SDS011;37397;53.226;10.400;2023-06-14T00:29:32;8.57;;;3.53;;
51312;SDS011;37397;53.226;10.400;2023-06-14T00:31:59;7.35;;;3.60;;
51312;SDS011;37397;53.226;10.400;2023-06-14T00:34:26;5.93;;;3.47;;
51312;SDS011;37397;53.226;10.400;2023-06-14T00:36:52;12.18;;;3.83;;
51312;SDS011;37397;53.226;10.400;2023-06-14T00:39:19;8.02;;;3.67;;
51312;SDS011;37397;53.226;10.400;2023-06-14T00:41:45;5.88;;;3.25;;
51312;SDS011;37397;53.226;10.400;2023-06-14T00:44:13;8.88;;;3.50;;
51312;SDS011;37397;53.226;10.400;2023-06-14T00:46:42;10.15;;;3.65;;
51312;SDS011;37397;53.226;10.400;2023-06-14T00:49:10;9.02;;;3.80;;
51312;SDS011;37397;53.226;10.400;2023-06-14T00:51:38;8.65;;;3.95;;
51312;SDS011;37397;53.226;10.400;2023-06-14T00:54:05;6.65;;;3.20;;
51312;SDS011;37397;53.226;10.400;2023-06-14T00:56:32;7.90;;;3.30;;
51312;SDS011;37397;53.226;10.400;2023-06-14T00:58:58;7.43;;;4.10;;
51312;SDS011;37397;53.226;10.400;2023-06-14T01:01:26;8.82;;;3.55;;
51312;SDS011;37397;53.226;10.400;2023-06-14T01:03:55;7.68;;;3.53;;
51312;SDS011;37397;53.226;10.400;2023-06-14T01:09:10;7.68;;;3.58;;
51312;SDS011;37397;53.226;10.400;2023-06-14T01:11:49;6.43;;;3.28;;
51312;SDS011;37397;53.226;10.400;2023-06-14T01:14:20;7.85;;;3.50;;
51312;SDS011;37397;53.226;10.400;2023-06-14T01:16:48;8.43;;;3.40;;
51312;SDS011;37397;53.226;10.400;2023-06-14T01:19:20;8.13;;;3.67;;
51312;SDS011;37397;53.226;10.400;2023-06-14T01:21:48;6.70;;;3.55;;
51312;SDS011;37397;53.226;10.400;2023-06-14T01:24:17;7.28;;;3.10;;
51312;SDS011;37397;53.226;10.400;2023-06-14T01:26:46;8.85;;;3.45;;
51312;SDS011;37397;53.226;10.400;2023-06-14T01:29:18;6.72;;;3.33;;
51312;SDS011;37397;53.226;10.400;2023-06-14T01:31:45;8.00;;;3.70;;
51312;SDS011;37397;53.226;10.400;2023-06-14T01:34:12;7.38;;;3.58;;
51312;SDS011;37397;53.226;10.400;2023-06-14T01:36:38;6.65;;;2.92;;
51312;SDS011;37397;53.226;10.400;2023-06-14T01:39:07;11.68;;;4.07;;
51312;SDS011;37397;53.226;10.400;2023-06-14T01:41:34;7.95;;;3.33;;
51312;SDS011;37397;53.226;10.400;2023-06-14T01:44:01;7.68;;;3.78;;
51312;SDS011;37397;53.226;10.400;2023-06-14T01:46:32;8.00;;;3.53;;
51312;SDS011;37397;53.226;10.400;2023-06-14T01:48:59;8.43;;;3.70;;
51312;SDS011;37397;53.226;10.400;2023-06-14T01:51:25;7.43;;;3.40;;
51312;SDS011;37397;53.226;10.400;2023-06-14T01:53:52;7.22;;;3.50;;
51312;SDS011;37397;53.226;10.400;2023-06-14T01:56:19;9.35;;;3.65;;
51312;SDS011;37397;53.226;10.400;2023-06-14T01:58:47;7.57;;;3.58;;
51312;SDS011;37397;53.226;10.400;2023-06-14T02:01:14;9.23;;;3.45;;
51312;SDS011;37397;53.226;10.400;2023-06-14T02:03:44;9.48;;;3.72;;
51312;SDS011;37397;53.226;10.400;2023-06-14T02:06:14;6.55;;;3.20;;
51312;SDS011;37397;53.226;10.400;2023-06-14T02:08:42;8.00;;;3.53;;
51312;SDS011;37397;53.226;10.400;2023-06-14T02:11:08;6.85;;;3.47;;
51312;SDS011;37397;53.226;10.400;2023-06-14T02:13:35;6.75;;;3.42;;
51312;SDS011;37397;53.226;10.400;2023-06-14T02:16:02;7.45;;;3.63;;
51312;SDS011;37397;53.226;10.400;2023-06-14T02:18:29;7.65;;;3.13;;
51312;SDS011;37397;53.226;10.400;2023-06-14T02:20:56;8.50;;;3.83;;
51312;SDS011;37397;53.226;10.400;2023-06-14T02:23:23;10.13;;;3.40;;
51312;SDS011;37397;53.226;10.400;2023-06-14T02:25:50;7.40;;;3.15;;
51312;SDS011;37397;53.226;10.400;2023-06-14T02:28:17;9.07;;;3.60;;
51312;SDS011;37397;53.226;10.400;2023-06-14T02:30:43;7.13;;;3.85;;
51312;SDS011;37397;53.226;10.400;2023-06-14T02:33:10;7.28;;;3.10;;
51312;SDS011;37397;53.226;10.400;2023-06-14T02:35:39;8.85;;;3.50;;
51312;SDS011;37397;53.226;10.400;2023-06-14T02:38:07;8.55;;;3.22;;
51312;SDS011;37397;53.226;10.400;2023-06-14T02:40:33;7.68;;;3.47;;
51312;SDS011;37397;53.226;10.400;2023-06-14T02:43:00;7.40;;;3.58;;
51312;SDS011;37397;53.226;10.400;2023-06-14T02:45:28;9.02;;;3.53;;
51312;SDS011;37397;53.226;10.400;2023-06-14T02:47:54;7.20;;;3.40;;
51312;SDS011;37397;53.226;10.400;2023-06-14T02:50:22;6.10;;;3.40;;
51312;SDS011;37397;53.226;10.400;2023-06-14T02:52:50;7.10;;;3.30;;
51312;SDS011;37397;53.226;10.400;2023-06-14T02:55:16;6.15;;;3.22;;
51312;SDS011;37397;53.226;10.400;2023-06-14T02:57:43;8.45;;;3.40;;
51312;SDS011;37397;53.226;10.400;2023-06-14T03:00:10;8.02;;;3.22;;
51312;SDS011;37397;53.226;10.400;2023-06-14T03:02:41;8.65;;;3.55;;
51312;SDS011;37397;53.226;10.400;2023-06-14T03:05:09;7.68;;;3.70;;
51312;SDS011;37397;53.226;10.400;2023-06-14T03:07:36;7.57;;;3.50;;
51312;SDS011;37397;53.226;10.400;2023-06-14T03:10:08;6.75;;;3.50;;
51312;SDS011;37397;53.226;10.400;2023-06-14T03:12:36;7.90;;;3.67;;
51312;SDS011;37397;53.226;10.400;2023-06-14T03:15:04;7.32;;;3.50;;
51312;SDS011;37397;53.226;10.400;2023-06-14T03:17:36;7.35;;;3.53;;
51312;SDS011;37397;53.226;10.400;2023-06-14T03:20:06;7.82;;;3.50;;
51312;SDS011;37397;53.226;10.400;2023-06-14T03:22:34;7.57;;;3.90;;
51312;SDS011;37397;53.226;10.400;2023-06-14T03:25:01;9.18;;;3.83;;
51312;SDS011;37397;53.226;10.400;2023-06-14T03:27:30;7.93;;;3.78;;
51312;SDS011;37397;53.226;10.400;2023-06-14T03:29:57;7.00;;;3.58;;
51312;SDS011;37397;53.226;10.400;2023-06-14T03:32:24;10.57;;;4.10;;
51312;SDS011;37397;53.226;10.400;2023-06-14T03:34:50;9.70;;;4.00;;
51312;SDS011;37397;53.226;10.400;2023-06-14T03:37:21;9.48;;;3.78;;
51312;SDS011;37397;53.226;10.400;2023-06-14T03:39:48;8.90;;;4.03;;
51312;SDS011;37397;53.226;10.400;2023-06-14T03:42:19;8.10;;;3.90;;
51312;SDS011;37397;53.226;10.400;2023-06-14T03:44:46;9.23;;;4.03;;
51312;SDS011;37397;53.226;10.400;2023-06-14T03:47:14;12.70;;;4.22;;
51312;SDS011;37397;53.226;10.400;2023-06-14T03:49:41;8.98;;;3.78;;
51312;SDS011;37397;53.226;10.400;2023-06-14T03:52:08;8.50;;;4.00;;
51312;SDS011;37397;53.226;10.400;2023-06-14T03:54:37;10.95;;;3.90;;
51312;SDS011;37397;53.226;10.400;2023-06-14T03:57:06;6.85;;;3.85;;
51312;SDS011;37397;53.226;10.400;2023-06-14T03:59:33;9.25;;;3.97;;
51312;SDS011;37397;53.226;10.400;2023-06-14T04:02:01;7.68;;;3.75;;
51312;SDS011;37397;53.226;10.400;2023-06-14T04:04:27;10.77;;;4.10;;
51312;SDS011;37397;53.226;10.400;2023-06-14T04:06:56;9.20;;;4.03;;
51312;SDS011;37397;53.226;10.400;2023-06-14T04:09:24;8.88;;;4.30;;
51312;SDS011;37397;53.226;10.400;2023-06-14T04:11:51;9.02;;;4.10;;
51312;SDS011;37397;53.226;10.400;2023-06-14T04:14:19;10.38;;;4.22;;
51312;SDS011;37397;53.226;10.400;2023-06-14T04:16:46;8.73;;;4.57;;
51312;SDS011;37397;53.226;10.400;2023-06-14T04:19:16;11.75;;;3.92;;
51312;SDS011;37397;53.226;10.400;2023-06-14T04:21:42;8.23;;;3.70;;
51312;SDS011;37397;53.226;10.400;2023-06-14T04:24:09;8.07;;;4.07;;
51312;SDS011;37397;53.226;10.400;2023-06-14T04:26:45;11.93;;;4.00;;
51312;SDS011;37397;53.226;10.400;2023-06-14T04:29:16;7.72;;;3.95;;
51312;SDS011;37397;53.226;10.400;2023-06-14T04:31:53;8.63;;;3.90;;
51312;SDS011;37397;53.226;10.400;2023-06-14T04:34:22;8.68;;;3.90;;
51312;SDS011;37397;53.226;10.400;2023-06-14T04:36:53;8.40;;;3.90;;
51312;SDS011;37397;53.226;10.400;2023-06-14T04:39:27;8.95;;;4.55;;
51312;SDS011;37397;53.226;10.400;2023-06-14T04:41:54;8.93;;;4.25;;
51312;SDS011;37397;53.226;10.400;2023-06-14T04:44:24;9.90;;;4.38;;
51312;SDS011;37397;53.226;10.400;2023-06-14T04:46:57;9.75;;;4.43;;
51312;SDS011;37397;53.226;10.400;2023-06-14T04:49:25;12.75;;;5.00;;
51312;SDS011;37397;53.226;10.400;2023-06-14T04:51:54;9.45;;;4.50;;
51312;SDS011;37397;53.226;10.400;2023-06-14T04:54:37;10.27;;;4.53;;
51312;SDS011;37397;53.226;10.400;2023-06-14T04:57:07;7.03;;;4.07;;
51312;SDS011;37397;53.226;10.400;2023-06-14T04:59:37;9.75;;;4.50;;
51312;SDS011;37397;53.226;10.400;2023-06-14T05:02:04;11.20;;;4.38;;
51312;SDS011;37397;53.226;10.400;2023-06-14T05:04:31;8.68;;;4.53;;
51312;SDS011;37397;53.226;10.400;2023-06-14T05:06:58;11.00;;;4.25;;
51312;SDS011;37397;53.226;10.400;2023-06-14T05:09:25;11.38;;;4.85;;
51312;SDS011;37397;53.226;10.400;2023-06-14T05:11:51;8.85;;;4.30;;
51312;SDS011;37397;53.226;10.400;2023-06-14T05:14:18;10.32;;;4.50;;
51312;SDS011;37397;53.226;10.400;2023-06-14T05:16:45;10.90;;;4.85;;
51312;SDS011;37397;53.226;10.400;2023-06-14T05:19:12;8.13;;;4.15;;
51312;SDS011;37397;53.226;10.400;2023-06-14T05:21:39;7.55;;;4.00;;
51312;SDS011;37397;53.226;10.400;2023-06-14T05:24:09;12.45;;;4.53;;
51312;SDS011;37397;53.226;10.400;2023-06-14T05:26:36;11.45;;;4.18;;
51312;SDS011;37397;53.226;10.400;2023-06-14T05:29:02;8.98;;;4.20;;
51312;SDS011;37397;53.226;10.400;2023-06-14T05:31:29;10.90;;;4.00;;
51312;SDS011;37397;53.226;10.400;2023-06-14T05:33:55;12.23;;;4.28;;
51312;SDS011;37397;53.226;10.400;2023-06-14T05:36:22;7.97;;;4.07;;
51312;SDS011;37397;53.226;10.400;2023-06-14T05:38:49;7.85;;;4.07;;
51312;SDS011;37397;53.226;10.400;2023-06-14T05:41:17;7.35;;;3.45;;
51312;SDS011;37397;53.226;10.400;2023-06-14T05:43:43;10.90;;;3.92;;
51312;SDS011;37397;53.226;10.400;2023-06-14T05:46:10;6.65;;;3.83;;
51312;SDS011;37397;53.226;10.400;2023-06-14T05:48:36;8.68;;;4.22;;
51312;SDS011;37397;53.226;10.400;2023-06-14T05:51:03;7.57;;;4.13;;
51312;SDS011;37397;53.226;10.400;2023-06-14T05:53:30;8.10;;;3.90;;
51312;SDS011;37397;53.226;10.400;2023-06-14T05:55:56;7.93;;;4.00;;
51312;SDS011;37397;53.226;10.400;2023-06-14T05:58:23;8.52;;;3.70;;
51312;SDS011;37397;53.226;10.400;2023-06-14T06:00:49;6.95;;;4.05;;
51312;SDS011;37397;53.226;10.400;2023-06-14T06:03:17;11.45;;;4.28;;
51312;SDS011;37397;53.226;10.400;2023-06-14T06:05:43;7.05;;;3.63;;
51312;SDS011;37397;53.226;10.400;2023-06-14T06:08:10;7.90;;;4.25;;
51312;SDS011;37397;53.226;10.400;2023-06-14T06:10:37;7.78;;;3.58;;
51312;SDS011;37397;53.226;10.400;2023-06-14T06:13:03;8.10;;;3.58;;
51312;SDS011;37397;53.226;10.400;2023-06-14T06:15:30;10.10;;;3.72;;
51312;SDS011;37397;53.226;10.400;2023-06-14T06:17:56;9.15;;;3.67;;
51312;SDS011;37397;53.226;10.400;2023-06-14T06:20:23;6.00;;;3.40;;
51312;SDS011;37397;53.226;10.400;2023-06-14T06:22:55;6.15;;;3.53;;
51312;SDS011;37397;53.226;10.400;2023-06-14T06:25:22;10.15;;;3.83;;
51312;SDS011;37397;53.226;10.400;2023-06-14T06:27:52;5.28;;;3.35;;
51312;SDS011;37397;53.226;10.400;2023-06-14T06:30:19;7.50;;;4.05;;
51312;SDS011;37397;53.226;10.400;2023-06-14T06:32:46;6.10;;;3.50;;
51312;SDS011;37397;53.226;10.400;2023-06-14T06:35:13;7.95;;;3.95;;
51312;SDS011;37397;53.226;10.400;2023-06-14T06:37:41;6.25;;;3.70;;
51312;SDS011;37397;53.226;10.400;2023-06-14T06:40:08;7.28;;;3.65;;
51312;SDS011;37397;53.226;10.400;2023-06-14T06:42:36;7.10;;;3.58;;
51312;SDS011;37397;53.226;10.400;2023-06-14T06:45:04;7.70;;;3.95;;
51312;SDS011;37397;53.226;10.400;2023-06-14T06:47:31;5.57;;;3.60;;
51312;SDS011;37397;53.226;10.400;2023-06-14T06:49:57;8.40;;;3.85;;
51312;SDS011;37397;53.226;10.400;2023-06-14T06:52:24;5.18;;;2.92;;
51312;SDS011;37397;53.226;10.400;2023-06-14T06:54:51;7.63;;;3.65;;
51312;SDS011;37397;53.226;10.400;2023-06-14T06:57:21;5.45;;;3.50;;
51312;SDS011;37397;53.226;10.400;2023-06-14T06:59:51;6.72;;;3.13;;
51312;SDS011;37397;53.226;10.400;2023-06-14T07:02:17;5.25;;;3.28;;
51312;SDS011;37397;53.226;10.400;2023-06-14T07:04:44;4.35;;;2.97;;
51312;SDS011;37397;53.226;10.400;2023-06-14T07:07:11;5.47;;;3.22;;
51312;SDS011;37397;53.226;10.400;2023-06-14T07:09:37;5.20;;;3.03;;
51312;SDS011;37397;53.226;10.400;2023-06-14T07:12:04;4.63;;;3.22;;
51312;SDS011;37397;53.226;10.400;2023-06-14T07:14:31;6.60;;;3.28;;
51312;SDS011;37397;53.226;10.400;2023-06-14T07:16:57;5.32;;;3.40;;
51312;SDS011;37397;53.226;10.400;2023-06-14T07:19:24;5.68;;;3.00;;
51312;SDS011;37397;53.226;10.400;2023-06-14T07:21:51;8.45;;;3.35;;
51312;SDS011;37397;53.226;10.400;2023-06-14T07:24:19;6.95;;;3.40;;
51312;SDS011;37397;53.226;10.400;2023-06-14T07:26:47;6.30;;;3.20;;
51312;SDS011;37397;53.226;10.400;2023-06-14T07:29:17;6.82;;;3.38;;
51312;SDS011;37397;53.226;10.400;2023-06-14T07:31:43;5.35;;;3.10;;
51312;SDS011;37397;53.226;10.400;2023-06-14T07:34:10;6.53;;;3.20;;
51312;SDS011;37397;53.226;10.400;2023-06-14T07:36:37;5.15;;;3.28;;
51312;SDS011;37397;53.226;10.400;2023-06-14T07:39:04;7.97;;;3.40;;
51312;SDS011;37397;53.226;10.400;2023-06-14T07:41:32;5.10;;;3.17;;
51312;SDS011;37397;53.226;10.400;2023-06-14T07:43:59;4.82;;;3.10;;
51312;SDS011;37397;53.226;10.400;2023-06-14T07:46:26;6.93;;;3.08;;
51312;SDS011;37397;53.226;10.400;2023-06-14T07:48:52;6.78;;;3.10;;
51312;SDS011;37397;53.226;10.400;2023-06-14T07:51:19;4.55;;;3.17;;
51312;SDS011;37397;53.226;10.400;2023-06-14T07:53:46;8.02;;;3.15;;
51312;SDS011;37397;53.226;10.400;2023-06-14T07:56:13;4.70;;;3.15;;
51312;SDS011;37397;53.226;10.400;2023-06-14T07:58:40;8.48;;;3.00;;
51312;SDS011;37397;53.226;10.400;2023-06-14T08:01:08;6.97;;;3.35;;
51312;SDS011;37397;53.226;10.400;2023-06-14T08:03:35;8.20;;;2.85;;
51312;SDS011;37397;53.226;10.400;2023-06-14T08:06:02;5.80;;;3.17;;
51312;SDS011;37397;53.226;10.400;2023-06-14T08:08:28;11.27;;;3.03;;
51312;SDS011;37397;53.226;10.400;2023-06-14T08:10:55;4.55;;;3.08;;
51312;SDS011;37397;53.226;10.400;2023-06-14T08:13:22;7.05;;;3.50;;
51312;SDS011;37397;53.226;10.400;2023-06-14T08:15:48;6.35;;;2.90;;
51312;SDS011;37397;53.226;10.400;2023-06-14T08:18:16;7.32;;;3.20;;
51312;SDS011;37397;53.226;10.400;2023-06-14T08:20:43;7.55;;;3.45;;
51312;SDS011;37397;53.226;10.400;2023-06-14T08:23:10;6.90;;;3.17;;
51312;SDS011;37397;53.226;10.400;2023-06-14T08:25:37;8.45;;;3.00;;
51312;SDS011;37397;53.226;10.400;2023-06-14T08:28:04;8.32;;;3.53;;
51312;SDS011;37397;53.226;10.400;2023-06-14T08:30:31;7.63;;;3.80;;
51312;SDS011;37397;53.226;10.400;2023-06-14T08:32:57;6.32;;;3.90;;
51312;SDS011;37397;53.226;10.400;2023-06-14T08:35:40;7.53;;;3.80;;
51312;SDS011;37397;53.226;10.400;2023-06-14T08:38:07;6.70;;;3.30;;
51312;SDS011;37397;53.226;10.400;2023-06-14T08:40:33;8.35;;;3.58;;
51312;SDS011;37397;53.226;10.400;2023-06-14T08:43:03;7.03;;;3.40;;
51312;SDS011;37397;53.226;10.400;2023-06-14T08:45:30;8.48;;;3.38;;
51312;SDS011;37397;53.226;10.400;2023-06-14T08:47:57;12.95;;;3.90;;
51312;SDS011;37397;53.226;10.400;2023-06-14T08:50:26;11.25;;;3.60;;
51312;SDS011;37397;53.226;10.400;2023-06-14T08:52:58;9.95;;;4.28;;
51312;SDS011;37397;53.226;10.400;2023-06-14T08:55:29;8.50;;;3.88;;
51312;SDS011;37397;53.226;10.400;2023-06-14T08:58:01;10.05;;;3.80;;
51312;SDS011;37397;53.226;10.400;2023-06-14T09:00:30;10.20;;;3.40;;
51312;SDS011;37397;53.226;10.400;2023-06-14T09:02:59;11.48;;;4.13;;
51312;SDS011;37397;53.226;10.400;2023-06-14T09:05:26;10.63;;;3.67;;
51312;SDS011;37397;53.226;10.400;2023-06-14T09:07:53;6.75;;;3.80;;
51312;SDS011;37397;53.226;10.400;2023-06-14T09:10:21;7.05;;;3.90;;
51312;SDS011;37397;53.226;10.400;2023-06-14T09:12:49;5.97;;;3.85;;
51312;SDS011;37397;53.226;10.400;2023-06-14T09:15:15;9.52;;;3.90;;
51312;SDS011;37397;53.226;10.400;2023-06-14T09:17:43;6.93;;;3.58;;
51312;SDS011;37397;53.226;10.400;2023-06-14T09:20:10;8.50;;;3.50;;
51312;SDS011;37397;53.226;10.400;2023-06-14T09:22:37;13.10;;;3.90;;
51312;SDS011;37397;53.226;10.400;2023-06-14T09:25:05;8.27;;;3.92;;
51312;SDS011;37397;53.226;10.400;2023-06-14T09:27:32;7.05;;;4.05;;
51312;SDS011;37397;53.226;10.400;2023-06-14T09:30:02;9.93;;;3.95;;
51312;SDS011;37397;53.226;10.400;2023-06-14T09:32:29;10.65;;;3.78;;
51312;SDS011;37397;53.226;10.400;2023-06-14T09:34:57;8.07;;;3.70;;
51312;SDS011;37397;53.226;10.400;2023-06-14T09:37:27;8.48;;;3.53;;
51312;SDS011;37397;53.226;10.400;2023-06-14T09:39:58;6.53;;;3.88;;
51312;SDS011;37397;53.226;10.400;2023-06-14T09:42:25;7.13;;;3.70;;
51312;SDS011;37397;53.226;10.400;2023-06-14T09:44:56;5.70;;;3.42;;
51312;SDS011;37397;53.226;10.400;2023-06-14T09:47:23;8.68;;;3.65;;
51312;SDS011;37397;53.226;10.400;2023-06-14T09:49:51;6.43;;;3.78;;
51312;SDS011;37397;53.226;10.400;2023-06-14T09:52:21;6.93;;;3.60;;
51312;SDS011;37397;53.226;10.400;2023-06-14T09:54:49;8.77;;;3.83;;
51312;SDS011;37397;53.226;10.400;2023-06-14T09:57:16;10.18;;;3.90;;
51312;SDS011;37397;53.226;10.400;2023-06-14T09:59:47;5.97;;;3.22;;
51312;SDS011;37397;53.226;10.400;2023-06-14T10:02:28;7.57;;;3.83;;
51312;SDS011;37397;53.226;10.400;2023-06-14T10:05:03;11.60;;;3.67;;
51312;SDS011;37397;53.226;10.400;2023-06-14T10:07:38;8.30;;;3.78;;
51312;SDS011;37397;53.226;10.400;2023-06-14T10:10:07;8.65;;;3.58;;
51312;SDS011;37397;53.226;10.400;2023-06-14T10:12:34;8.07;;;3.55;;
51312;SDS011;37397;53.226;10.400;2023-06-14T10:15:01;9.25;;;3.88;;
51312;SDS011;37397;53.226;10.400;2023-06-14T10:17:38;8.70;;;3.78;;
51312;SDS011;37397;53.226;10.400;2023-06-14T10:20:15;9.32;;;3.70;;
51312;SDS011;37397;53.226;10.400;2023-06-14T10:22:55;10.93;;;3.60;;
51312;SDS011;37397;53.226;10.400;2023-06-14T10:28:14;9.80;;;3.75;;
51312;SDS011;37397;53.226;10.400;2023-06-14T10:31:03;7.43;;;3.35;;
51312;SDS011;37397;53.226;10.400;2023-06-14T10:33:56;9.18;;;3.88;;
51312;SDS011;37397;53.226;10.400;2023-06-14T10:36:30;8.18;;;3.63;;
51312;SDS011;37397;53.226;10.400;2023-06-14T10:41:27;12.95;;;4.25;;
51312;SDS011;37397;53.226;10.400;2023-06-14T10:44:10;7.70;;;3.67;;
51312;SDS011;37397;53.226;10.400;2023-06-14T10:46:40;8.50;;;3.90;;
51312;SDS011;37397;53.226;10.400;2023-06-14T10:49:10;8.93;;;3.85;;
51312;SDS011;37397;53.226;10.400;2023-06-14T10:51:41;5.72;;;3.70;;
51312;SDS011;37397;53.226;10.400;2023-06-14T10:54:14;8.18;;;3.70;;
51312;SDS011;37397;53.226;10.400;2023-06-14T10:56:48;7.50;;;4.13;;
51312;SDS011;37397;53.226;10.400;2023-06-14T11:01:51;10.38;;;3.42;;
51312;SDS011;37397;53.226;10.400;2023-06-14T11:04:48;7.65;;;3.35;;
51312;SDS011;37397;53.226;10.400;2023-06-14T11:13:08;7.60;;;3.50;;
51312;SDS011;37397;53.226;10.400;2023-06-14T11:15:35;9.85;;;3.67;;
51312;SDS011;37397;53.226;10.400;2023-06-14T11:18:04;8.02;;;3.63;;
51312;SDS011;37397;53.226;10.400;2023-06-14T11:20:33;6.97;;;3.58;;
51312;SDS011;37397;53.226;10.400;2023-06-14T11:23:01;10.80;;;3.60;;
51312;SDS011;37397;53.226;10.400;2023-06-14T11:25:28;7.65;;;3.38;;
51312;SDS011;37397;53.226;10.400;2023-06-14T11:27:55;7.20;;;3.40;;
51312;SDS011;37397;53.226;10.400;2023-06-14T11:30:22;7.85;;;3.88;;
51312;SDS011;37397;53.226;10.400;2023-06-14T11:32:50;8.82;;;3.45;;
51312;SDS011;37397;53.226;10.400;2023-06-14T11:37:54;7.05;;;3.67;;
51312;SDS011;37397;53.226;10.400;2023-06-14T11:40:23;8.60;;;3.92;;
51312;SDS011;37397;53.226;10.400;2023-06-14T11:42:57;9.05;;;3.67;;
51312;SDS011;37397;53.226;10.400;2023-06-14T11:45:26;5.95;;;3.30;;
51312;SDS011;37397;53.226;10.400;2023-06-14T11:47:54;9.15;;;3.55;;
51312;SDS011;37397;53.226;10.400;2023-06-14T11:50:23;6.57;;;3.20;;
51312;SDS011;37397;53.226;10.400;2023-06-14T11:52:53;10.38;;;3.55;;
51312;SDS011;37397;53.226;10.400;2023-06-14T11:55:22;8.85;;;3.40;;
51312;SDS011;37397;53.226;10.400;2023-06-14T11:57:50;6.63;;;3.17;;
51312;SDS011;37397;53.226;10.400;2023-06-14T12:00:17;7.68;;;3.60;;
51312;SDS011;37397;53.226;10.400;2023-06-14T12:02:51;8.80;;;3.97;;
51312;SDS011;37397;53.226;10.400;2023-06-14T12:05:20;12.93;;;4.20;;
51312;SDS011;37397;53.226;10.400;2023-06-14T12:07:47;7.88;;;3.55;;
51312;SDS011;37397;53.226;10.400;2023-06-14T12:10:14;8.32;;;3.90;;
51312;SDS011;37397;53.226;10.400;2023-06-14T12:12:42;9.02;;;3.45;;
51312;SDS011;37397;53.226;10.400;2023-06-14T12:15:09;10.15;;;3.78;;
51312;SDS011;37397;53.226;10.400;2023-06-14T12:17:39;8.45;;;3.88;;
51312;SDS011;37397;53.226;10.400;2023-06-14T12:20:10;8.50;;;3.53;;
51312;SDS011;37397;53.226;10.400;2023-06-14T12:22:51;8.57;;;3.00;;
51312;SDS011;37397;53.226;10.400;2023-06-14T12:25:23;6.20;;;3.25;;
51312;SDS011;37397;53.226;10.400;2023-06-14T12:27:54;8.20;;;3.17;;
51312;SDS011;37397;53.226;10.400;2023-06-14T12:30:21;9.00;;;3.42;;
51312;SDS011;37397;53.226;10.400;2023-06-14T12:32:48;8.98;;;3.63;;
51312;SDS011;37397;53.226;10.400;2023-06-14T12:35:15;6.80;;;3.40;;
51312;SDS011;37397;53.226;10.400;2023-06-14T12:37:42;8.68;;;3.80;;
51312;SDS011;37397;53.226;10.400;2023-06-14T12:40:08;9.13;;;3.22;;
51312;SDS011;37397;53.226;10.400;2023-06-14T12:42:37;7.03;;;3.25;;
51312;SDS011;37397;53.226;10.400;2023-06-14T12:45:04;8.65;;;3.10;;
51312;SDS011;37397;53.226;10.400;2023-06-14T12:47:31;8.50;;;3.50;;
51312;SDS011;37397;53.226;10.400;2023-06-14T12:49:58;9.57;;;2.97;;
51312;SDS011;37397;53.226;10.400;2023-06-14T12:52:25;5.70;;;3.45;;
51312;SDS011;37397;53.226;10.400;2023-06-14T12:54:52;8.45;;;3.47;;
51312;SDS011;37397;53.226;10.400;2023-06-14T12:57:19;7.35;;;3.28;;
51312;SDS011;37397;53.226;10.400;2023-06-14T12:59:45;8.20;;;3.35;;
51312;SDS011;37397;53.226;10.400;2023-06-14T13:02:15;7.95;;;3.20;;
51312;SDS011;37397;53.226;10.400;2023-06-14T13:04:44;6.50;;;3.30;;
51312;SDS011;37397;53.226;10.400;2023-06-14T13:07:10;7.28;;;3.33;;
51312;SDS011;37397;53.226;10.400;2023-06-14T13:09:37;7.35;;;3.40;;
51312;SDS011;37397;53.226;10.400;2023-06-14T13:12:05;8.77;;;3.47;;
51312;SDS011;37397;53.226;10.400;2023-06-14T13:14:33;9.85;;;3.35;;
51312;SDS011;37397;53.226;10.400;2023-06-14T13:16:59;5.68;;;3.25;;
51312;SDS011;37397;53.226;10.400;2023-06-14T13:19:26;10.88;;;3.58;;
51312;SDS011;37397;53.226;10.400;2023-06-14T13:21:52;9.55;;;3.17;;
51312;SDS011;37397;53.226;10.400;2023-06-14T13:24:19;7.65;;;3.17;;
51312;SDS011;37397;53.226;10.400;2023-06-14T13:26:46;8.90;;;3.58;;
51312;SDS011;37397;53.226;10.400;2023-06-14T13:29:12;10.65;;;3.40;;
51312;SDS011;37397;53.226;10.400;2023-06-14T13:31:39;8.10;;;3.22;;
51312;SDS011;37397;53.226;10.400;2023-06-14T13:34:06;5.47;;;3.10;;
51312;SDS011;37397;53.226;10.400;2023-06-14T13:36:32;5.30;;;3.22;;
51312;SDS011;37397;53.226;10.400;2023-06-14T13:38:59;6.75;;;3.20;;
51312;SDS011;37397;53.226;10.400;2023-06-14T13:41:27;6.85;;;3.03;;
51312;SDS011;37397;53.226;10.400;2023-06-14T13:43:58;7.63;;;3.25;;
51312;SDS011;37397;53.226;10.400;2023-06-14T13:46:25;6.30;;;3.17;;
51312;SDS011;37397;53.226;10.400;2023-06-14T13:48:52;7.28;;;2.97;;
51312;SDS011;37397;53.226;10.400;2023-06-14T13:51:18;5.00;;;3.03;;
51312;SDS011;37397;53.226;10.400;2023-06-14T13:53:45;7.47;;;3.00;;
51312;SDS011;37397;53.226;10.400;2023-06-14T13:56:13;6.28;;;3.47;;
51312;SDS011;37397;53.226;10.400;2023-06-14T13:58:40;5.88;;;2.85;;
51312;SDS011;37397;53.226;10.400;2023-06-14T14:01:07;5.93;;;2.80;;
51312;SDS011;37397;53.226;10.400;2023-06-14T14:03:35;9.23;;;3.03;;
51312;SDS011;37397;53.226;10.400;2023-06-14T14:06:02;5.43;;;3.17;;
51312;SDS011;37397;53.226;10.400;2023-06-14T14:08:29;8.77;;;3.45;;
51312;SDS011;37397;53.226;10.400;2023-06-14T14:10:56;7.93;;;3.17;;
51312;SDS011;37397;53.226;10.400;2023-06-14T14:13:22;6.97;;;3.05;;
51312;SDS011;37397;53.226;10.400;2023-06-14T14:15:49;8.07;;;3.42;;
51312;SDS011;37397;53.226;10.400;2023-06-14T14:18:15;8.93;;;3.50;;
51312;SDS011;37397;53.226;10.400;2023-06-14T14:20:42;6.55;;;3.13;;
51312;SDS011;37397;53.226;10.400;2023-06-14T14:23:10;6.68;;;3.13;;
51312;SDS011;37397;53.226;10.400;2023-06-14T14:25:36;6.63;;;2.97;;
51312;SDS011;37397;53.226;10.400;2023-06-14T14:28:02;4.20;;;2.80;;
51312;SDS011;37397;53.226;10.400;2023-06-14T14:30:29;7.10;;;3.40;;
51312;SDS011;37397;53.226;10.400;2023-06-14T14:32:56;7.40;;;3.33;;
51312;SDS011;37397;53.226;10.400;2023-06-14T14:35:22;7.40;;;3.33;;
51312;SDS011;37397;53.226;10.400;2023-06-14T14:37:51;8.52;;;3.30;;
51312;SDS011;37397;53.226;10.400;2023-06-14T14:40:18;7.25;;;3.50;;
51312;SDS011;37397;53.226;10.400;2023-06-14T14:42:44;7.00;;;3.40;;
51312;SDS011;37397;53.226;10.400;2023-06-14T14:45:11;12.70;;;4.00;;
51312;SDS011;37397;53.226;10.400;2023-06-14T14:47:37;10.10;;;3.25;;
51312;SDS011;37397;53.226;10.400;2023-06-14T14:50:04;8.63;;;3.45;;
51312;SDS011;37397;53.226;10.400;2023-06-14T14:52:35;9.35;;;3.40;;
51312;SDS011;37397;53.226;10.400;2023-06-14T14:55:02;7.43;;;3.50;;
51312;SDS011;37397;53.226;10.400;2023-06-14T14:57:28;7.70;;;3.20;;
51312;SDS011;37397;53.226;10.400;2023-06-14T14:59:56;7.18;;;2.85;;